createdAt,value
2023-02-11T00:01:30.364Z,44.42
2023-02-11T00:03:58.557Z,44.85
2023-02-11T00:06:28.072Z,42.75
2023-02-11T00:08:56.021Z,43.95
2023-02-11T00:11:25.794Z,43.70
2023-02-11T00:13:53.295Z,43.90
2023-02-11T00:16:21.396Z,46.03
2023-02-11T00:18:49.019Z,45.25
2023-02-11T00:21:19.102Z,45.63
2023-02-11T00:23:47.468Z,47.58
2023-02-11T00:26:19.046Z,47.08
2023-02-11T00:28:47.137Z,47.65
2023-02-11T00:31:15.635Z,48.42
2023-02-11T00:33:42.962Z,48.22
2023-02-11T00:36:14.815Z,50.40
2023-02-11T00:38:44.560Z,50.85
2023-02-11T00:41:13.426Z,50.35
2023-02-11T00:43:44.003Z,50.40
2023-02-11T00:46:11.952Z,49.47
2023-02-11T00:48:39.731Z,51.10
2023-02-11T00:51:07.513Z,49.10
2023-02-11T00:53:35.604Z,50.33
2023-02-11T00:56:02.845Z,51.30
2023-02-11T00:58:30.510Z,50.20
2023-02-11T01:00:58.281Z,50.00
2023-02-11T01:03:25.477Z,50.45
2023-02-11T01:05:52.791Z,50.50
2023-02-11T01:08:20.363Z,49.60
2023-02-11T01:10:55.347Z,49.45
2023-02-11T01:13:22.980Z,52.42
2023-02-11T01:15:50.435Z,50.00
2023-02-11T01:18:17.732Z,49.30
2023-02-11T01:20:44.945Z,48.88
2023-02-11T01:23:12.185Z,50.90
2023-02-11T01:25:39.265Z,49.40
2023-02-11T01:28:12.866Z,47.40
2023-02-11T01:30:40.224Z,49.05
2023-02-11T01:33:07.858Z,49.28
2023-02-11T01:35:34.981Z,49.35
2023-02-11T01:38:02.130Z,49.25
2023-02-11T01:40:29.199Z,48.85
2023-02-11T01:42:56.403Z,48.03
2023-02-11T01:45:59.170Z,48.53
2023-02-11T01:48:29.469Z,48.40
2023-02-11T01:51:18.768Z,49.03
2023-02-11T01:54:06.703Z,49.85
2023-02-11T01:56:56.530Z,49.03
2023-02-11T01:59:31.555Z,46.80
2023-02-11T02:02:05.974Z,47.90
2023-02-11T02:04:44.583Z,45.63
2023-02-11T02:07:22.312Z,47.83
2023-02-11T02:09:58.134Z,47.60
2023-02-11T02:12:25.235Z,48.33
2023-02-11T02:14:52.227Z,49.58
2023-02-11T02:17:44.836Z,47.83
2023-02-11T02:20:44.069Z,48.85
2023-02-11T02:23:11.045Z,49.88
2023-02-11T02:26:10.204Z,45.75
2023-02-11T02:28:43.164Z,47.20
2023-02-11T02:31:47.473Z,48.63
2023-02-11T02:34:22.956Z,47.47
2023-02-11T02:37:00.405Z,48.92
2023-02-11T02:39:35.635Z,48.72
2023-02-11T02:42:04.321Z,48.25
2023-02-11T02:44:32.290Z,51.58
2023-02-11T02:46:59.424Z,49.60
2023-02-11T02:49:26.830Z,51.33
2023-02-11T02:52:12.765Z,51.08
2023-02-11T02:55:09.101Z,48.75
2023-02-11T02:57:48.529Z,49.33
2023-02-11T03:00:34.914Z,50.80
2023-02-11T03:03:26.438Z,51.05
2023-02-11T03:06:03.461Z,51.38
2023-02-11T03:08:56.822Z,52.03
2023-02-11T03:11:26.208Z,48.78
2023-02-11T03:13:55.587Z,53.47
2023-02-11T03:16:27.791Z,52.38
2023-02-11T03:19:09.225Z,53.85
2023-02-11T03:21:38.840Z,52.03
2023-02-11T03:24:19.642Z,52.75
2023-02-11T03:26:53.979Z,53.65
2023-02-11T03:30:03.061Z,52.28
2023-02-11T03:32:36.726Z,52.53
2023-02-11T03:35:20.481Z,54.70
2023-02-11T03:38:05.714Z,55.03
2023-02-11T03:40:38.452Z,55.25
2023-02-11T03:43:28.189Z,52.80
2023-02-11T03:45:56.690Z,52.95
2023-02-11T03:48:30.482Z,55.50
2023-02-11T03:51:01.807Z,55.47
2023-02-11T03:53:29.188Z,55.05
2023-02-11T03:55:58.923Z,54.58
2023-02-11T03:58:26.057Z,55.85
2023-02-11T04:00:53.161Z,54.80
2023-02-11T04:03:20.256Z,57.05
2023-02-11T04:05:48.567Z,58.72
2023-02-11T04:08:16.370Z,60.22
2023-02-11T04:10:43.614Z,56.40
2023-02-11T04:13:10.566Z,57.80
2023-02-11T04:15:37.614Z,58.90
2023-02-11T04:18:05.071Z,57.88
2023-02-11T04:20:32.197Z,55.67
2023-02-11T04:22:59.394Z,56.20
2023-02-11T04:25:27.307Z,54.85
2023-02-11T04:27:54.423Z,55.58
2023-02-11T04:30:21.651Z,57.85
2023-02-11T04:32:48.677Z,56.40
2023-02-11T04:35:15.780Z,55.05
2023-02-11T04:37:42.981Z,56.50
2023-02-11T04:40:10.464Z,54.28
2023-02-11T04:42:37.684Z,54.50
2023-02-11T04:45:05.590Z,53.95
2023-02-11T04:47:32.543Z,54.42
2023-02-11T04:50:00.053Z,54.55
2023-02-11T04:52:27.098Z,51.45
2023-02-11T04:54:54.016Z,55.05
2023-02-11T04:57:21.092Z,50.95
2023-02-11T04:59:49.049Z,51.25
2023-02-11T05:02:16.232Z,50.50
2023-02-11T05:04:43.427Z,50.70
2023-02-11T05:07:10.511Z,51.00
2023-02-11T05:09:37.595Z,50.78
2023-02-11T05:12:05.074Z,49.92
2023-02-11T05:14:32.510Z,49.95
2023-02-11T05:16:59.826Z,50.03
2023-02-11T05:19:27.133Z,50.50
2023-02-11T05:22:02.698Z,49.08
2023-02-11T05:24:32.571Z,48.50
2023-02-11T05:27:00.395Z,48.63
2023-02-11T05:29:27.737Z,47.67
2023-02-11T05:31:55.053Z,51.22
2023-02-11T05:34:22.102Z,46.05
2023-02-11T05:36:49.227Z,48.45
2023-02-11T05:39:16.251Z,49.25
2023-02-11T05:41:43.238Z,46.05
2023-02-11T05:44:10.275Z,47.85
2023-02-11T05:46:37.405Z,46.47
2023-02-11T05:49:04.679Z,47.53
2023-02-11T05:51:31.714Z,45.90
2023-02-11T05:53:59.067Z,45.00
2023-02-11T05:56:26.191Z,45.78
2023-02-11T05:58:53.345Z,44.35
2023-02-11T06:01:20.327Z,44.60
2023-02-11T06:03:50.218Z,42.72
2023-02-11T06:06:17.780Z,43.17
2023-02-11T06:08:44.841Z,42.17
2023-02-11T06:11:11.834Z,42.50
2023-02-11T06:13:38.798Z,42.63
2023-02-11T06:16:06.133Z,43.65
2023-02-11T06:18:36.055Z,44.90
2023-02-11T06:21:07.481Z,41.60
2023-02-11T06:23:34.523Z,43.55
2023-02-11T06:26:16.035Z,41.20
2023-02-11T06:28:43.834Z,41.60
2023-02-11T06:31:12.002Z,41.67
2023-02-11T06:33:39.786Z,42.78
2023-02-11T06:36:18.019Z,40.55
2023-02-11T06:38:45.138Z,41.78
2023-02-11T06:41:14.098Z,41.03
2023-02-11T06:43:41.787Z,40.42
2023-02-11T06:46:09.364Z,42.10
2023-02-11T06:48:36.811Z,41.80
2023-02-11T06:51:06.597Z,40.10
2023-02-11T06:53:40.602Z,40.03
2023-02-11T06:56:11.045Z,42.10
2023-02-11T06:58:38.652Z,43.03
2023-02-11T07:01:08.601Z,42.97
2023-02-11T07:03:36.900Z,44.95
2023-02-11T07:06:08.441Z,44.50
2023-02-11T07:08:37.255Z,40.50
2023-02-11T07:11:12.748Z,41.63
2023-02-11T07:13:40.132Z,41.35
2023-02-11T07:16:14.449Z,42.38
2023-02-11T07:18:42.377Z,32.22
2023-02-11T07:21:12.278Z,45.28
2023-02-11T07:23:40.930Z,43.83
2023-02-11T07:26:10.678Z,41.42
2023-02-11T07:28:39.108Z,40.45
2023-02-11T07:31:11.468Z,39.17
2023-02-11T07:33:38.871Z,38.85
2023-02-11T07:36:08.019Z,42.10
2023-02-11T07:38:36.274Z,41.90
2023-02-11T07:41:09.971Z,39.08
2023-02-11T07:43:38.411Z,40.35
2023-02-11T07:46:11.435Z,38.33
2023-02-11T07:48:39.038Z,41.10
2023-02-11T07:51:21.800Z,40.85
2023-02-11T07:53:49.162Z,39.13
2023-02-11T07:56:17.753Z,40.70
2023-02-11T07:58:44.903Z,39.47
2023-02-11T08:01:26.029Z,42.05
2023-02-11T08:03:55.551Z,41.40
2023-02-11T08:06:24.571Z,39.00
2023-02-11T08:08:52.064Z,41.20
2023-02-11T08:11:23.503Z,42.10
2023-02-11T08:13:51.318Z,42.35
2023-02-11T08:16:23.018Z,42.50
2023-02-11T08:18:51.214Z,40.55
2023-02-11T08:21:19.031Z,41.38
2023-02-11T08:23:46.714Z,40.03
2023-02-11T08:26:16.868Z,41.40
2023-02-11T08:28:45.441Z,38.55
2023-02-11T08:31:17.661Z,41.05
2023-02-11T08:33:45.436Z,40.25
2023-02-11T08:36:22.000Z,40.95
2023-02-11T08:38:49.238Z,42.53
2023-02-11T08:41:16.732Z,41.55
2023-02-11T08:43:45.595Z,40.83
2023-02-11T08:46:17.027Z,43.08
2023-02-11T08:48:44.917Z,42.00
2023-02-11T08:51:18.360Z,42.25
2023-02-11T08:53:46.200Z,41.85
2023-02-11T08:56:14.498Z,40.45
2023-02-11T08:58:41.980Z,42.95
2023-02-11T09:01:14.752Z,42.20
2023-02-11T09:03:42.109Z,41.90
2023-02-11T09:06:11.564Z,41.05
2023-02-11T09:08:46.332Z,44.35
2023-02-11T09:11:15.193Z,43.33
2023-02-11T09:13:43.532Z,41.95
2023-02-11T09:16:18.284Z,42.55
2023-02-11T09:18:45.937Z,42.70
2023-02-11T09:21:13.938Z,44.35
2023-02-11T09:23:43.859Z,44.08
2023-02-11T09:26:22.671Z,43.03
2023-02-11T09:28:51.408Z,44.42
2023-02-11T09:31:22.088Z,41.60
2023-02-11T09:33:52.185Z,43.03
2023-02-11T09:36:25.766Z,44.10
2023-02-11T09:38:53.942Z,43.47
2023-02-11T09:41:24.069Z,43.45
2023-02-11T09:43:55.060Z,43.63
2023-02-11T09:46:23.634Z,42.55
2023-02-11T09:48:53.659Z,44.15
2023-02-11T09:51:40.691Z,45.22
2023-02-11T09:54:41.343Z,43.72
2023-02-11T09:57:26.589Z,42.72
2023-02-11T09:59:55.638Z,46.92
2023-02-11T10:02:48.170Z,48.60
2023-02-11T10:05:21.064Z,49.78
2023-02-11T10:08:10.201Z,46.85
2023-02-11T10:11:00.347Z,48.40
2023-02-11T10:13:45.135Z,44.58
2023-02-11T10:16:41.424Z,32.10
2023-02-11T10:19:29.747Z,42.13
2023-02-11T10:22:42.468Z,42.10
2023-02-11T10:25:35.510Z,42.72
2023-02-11T10:28:21.878Z,42.00
2023-02-11T10:31:01.512Z,41.45
2023-02-11T10:33:54.468Z,41.25
2023-02-11T10:36:25.938Z,40.45
2023-02-11T10:38:53.175Z,42.05
2023-02-11T10:41:29.434Z,40.67
2023-02-11T10:43:56.809Z,39.63
2023-02-11T10:46:29.813Z,40.55
2023-02-11T10:48:57.283Z,41.08
2023-02-11T10:51:29.665Z,41.58
2023-02-11T10:54:08.631Z,41.90
2023-02-11T10:56:50.235Z,40.70
2023-02-11T10:59:34.996Z,40.58
2023-02-11T11:02:44.215Z,33.55
2023-02-11T11:05:22.734Z,40.75
2023-02-11T11:07:59.821Z,39.53
2023-02-11T11:10:37.893Z,39.33
2023-02-11T11:13:04.989Z,39.72
2023-02-11T11:15:32.785Z,38.72
2023-02-11T11:18:23.539Z,41.20
2023-02-11T11:21:08.303Z,41.15
2023-02-11T11:23:37.226Z,37.70
2023-02-11T11:26:07.027Z,39.17
2023-02-11T11:28:40.366Z,40.53
2023-02-11T11:31:20.615Z,39.85
2023-02-11T11:33:49.099Z,39.63
2023-02-11T11:36:32.257Z,40.92
2023-02-11T11:39:04.181Z,38.30
2023-02-11T11:41:34.419Z,37.67
2023-02-11T11:44:23.078Z,37.72
2023-02-11T11:46:54.918Z,38.38
2023-02-11T11:49:51.248Z,37.35
2023-02-11T11:52:54.658Z,39.53
2023-02-11T11:55:27.210Z,35.28
2023-02-11T11:57:54.246Z,38.97
2023-02-11T12:00:36.588Z,37.13
2023-02-11T12:03:34.665Z,37.35
2023-02-11T12:06:24.344Z,37.08
2023-02-11T12:09:20.138Z,36.63
2023-02-11T12:14:38.929Z,34.70
2023-02-11T12:17:32.341Z,35.95
2023-02-11T12:20:42.539Z,35.83
2023-02-11T12:23:46.773Z,34.20
2023-02-11T12:26:34.848Z,34.63
2023-02-11T12:29:29.155Z,37.10
2023-02-11T12:32:04.570Z,37.03
2023-02-11T12:34:47.275Z,36.72
2023-02-11T12:37:32.388Z,37.35
2023-02-11T12:40:02.313Z,36.42
2023-02-11T12:42:53.801Z,34.70
2023-02-11T12:45:49.650Z,38.38
2023-02-11T12:48:35.720Z,35.10
2023-02-11T12:51:19.799Z,37.08
2023-02-11T12:53:55.808Z,35.83
2023-02-11T12:56:50.871Z,36.35
2023-02-11T12:59:40.519Z,36.22
2023-02-11T13:02:21.689Z,37.38
2023-02-11T13:04:53.926Z,38.22
2023-02-11T13:07:31.308Z,36.33
2023-02-11T13:10:07.800Z,36.58
2023-02-11T13:12:58.687Z,36.75
2023-02-11T13:15:26.177Z,37.25
2023-02-11T13:18:10.243Z,37.90
2023-02-11T13:20:45.519Z,38.97
2023-02-11T13:23:37.483Z,39.00
2023-02-11T13:26:25.266Z,38.08
2023-02-11T13:29:24.197Z,38.67
2023-02-11T13:32:05.502Z,40.60
2023-02-11T13:34:52.645Z,42.70
2023-02-11T13:37:39.702Z,41.78
2023-02-11T13:40:20.523Z,40.63
2023-02-11T13:43:24.110Z,42.42
2023-02-11T13:45:52.471Z,42.45
2023-02-11T13:48:24.752Z,41.97
2023-02-11T13:50:55.563Z,41.85
2023-02-11T13:53:23.824Z,40.85
2023-02-11T13:56:04.872Z,42.13
2023-02-11T13:58:31.640Z,42.05
2023-02-11T14:00:58.621Z,41.50
2023-02-11T14:03:48.673Z,40.90
2023-02-11T14:06:40.739Z,42.00
2023-02-11T14:09:11.519Z,41.85
2023-02-11T14:11:41.702Z,41.75
2023-02-11T14:14:35.013Z,40.65
2023-02-11T14:17:08.070Z,40.40
2023-02-11T14:19:44.189Z,39.75
2023-02-11T14:22:39.982Z,39.15
2023-02-11T14:28:16.386Z,39.97
2023-02-11T14:30:53.098Z,39.80
2023-02-11T14:33:55.857Z,38.92
2023-02-11T14:36:47.229Z,39.67
2023-02-11T14:39:45.265Z,38.35
2023-02-11T14:42:21.516Z,37.30
2023-02-11T14:44:51.358Z,38.53
2023-02-11T14:47:35.641Z,36.97
2023-02-11T14:50:02.837Z,39.55
2023-02-11T14:52:32.671Z,39.42
2023-02-11T14:55:06.441Z,39.80
2023-02-11T14:57:33.608Z,40.50
2023-02-11T15:00:04.343Z,37.63
2023-02-11T15:02:38.576Z,39.13
2023-02-11T15:05:26.517Z,38.13
2023-02-11T15:07:57.127Z,38.53
2023-02-11T15:10:32.963Z,38.13
2023-02-11T15:13:01.968Z,37.92
2023-02-11T15:15:29.740Z,38.95
2023-02-11T15:18:00.240Z,38.95
2023-02-11T15:20:32.014Z,36.63
2023-02-11T15:23:09.508Z,41.25
2023-02-11T15:25:44.442Z,39.30
2023-02-11T15:28:26.366Z,45.28
2023-02-11T15:31:02.562Z,38.15
2023-02-11T15:33:31.998Z,35.83
2023-02-11T15:36:00.812Z,39.97
2023-02-11T15:38:32.423Z,36.00
2023-02-11T15:41:02.356Z,35.92
2023-02-11T15:43:53.393Z,35.75
2023-02-11T15:46:23.154Z,36.80
2023-02-11T15:48:53.028Z,35.92
2023-02-11T15:51:31.540Z,38.22
2023-02-11T15:54:03.573Z,37.00
2023-02-11T15:56:37.751Z,37.50
2023-02-11T15:59:35.966Z,26.77
2023-02-11T16:02:29.012Z,34.88
2023-02-11T16:05:01.913Z,36.20
2023-02-11T16:07:59.492Z,34.47
2023-02-11T16:10:33.382Z,37.75
2023-02-11T16:13:20.095Z,36.13
2023-02-11T16:15:51.013Z,37.42
2023-02-11T16:18:30.984Z,36.72
2023-02-11T16:21:05.267Z,36.55
2023-02-11T16:23:38.448Z,37.13
2023-02-11T16:26:10.781Z,38.95
2023-02-11T16:28:38.199Z,37.17
2023-02-11T16:31:05.998Z,37.50
2023-02-11T16:33:33.024Z,35.20
2023-02-11T16:36:02.329Z,36.90
2023-02-11T16:38:30.183Z,37.28
2023-02-11T16:40:57.042Z,35.83
2023-02-11T16:43:24.285Z,37.80
2023-02-11T16:45:51.558Z,36.95
2023-02-11T16:48:20.363Z,36.67
2023-02-11T16:50:51.519Z,38.88
2023-02-11T16:53:25.203Z,36.78
2023-02-11T16:55:53.233Z,36.17
2023-02-11T16:58:20.491Z,34.20
2023-02-11T17:00:49.022Z,34.75
2023-02-11T17:03:21.706Z,34.88
2023-02-11T17:05:55.869Z,33.63
2023-02-11T17:08:23.715Z,25.83
2023-02-11T17:10:53.584Z,31.83
2023-02-11T17:13:20.578Z,34.13
2023-02-11T17:15:47.485Z,32.50
2023-02-11T17:18:14.618Z,34.05
2023-02-11T17:20:42.075Z,33.92
2023-02-11T17:23:09.163Z,32.58
2023-02-11T17:25:39.120Z,33.85
2023-02-11T17:28:07.787Z,33.72
2023-02-11T17:30:35.276Z,33.42
2023-02-11T17:33:02.196Z,33.55
2023-02-11T17:35:28.978Z,32.40
2023-02-11T17:37:55.838Z,34.28
2023-02-11T17:40:22.830Z,33.72
2023-02-11T17:42:50.701Z,33.40
2023-02-11T17:45:19.818Z,33.80
2023-02-11T17:47:49.238Z,33.35
2023-02-11T17:50:16.282Z,34.78
2023-02-11T17:52:43.338Z,35.65
2023-02-11T17:55:10.221Z,33.38
2023-02-11T17:57:38.370Z,32.35
2023-02-11T18:00:07.828Z,32.47
2023-02-11T18:02:34.991Z,32.15
2023-02-11T18:05:02.166Z,34.05
2023-02-11T18:07:30.367Z,35.95
2023-02-11T18:10:00.242Z,34.30
2023-02-11T18:12:27.439Z,34.00
2023-02-11T18:14:58.126Z,31.75
2023-02-11T18:17:25.235Z,32.03
2023-02-11T18:19:56.998Z,31.48
2023-02-11T18:22:24.937Z,29.98
2023-02-11T18:24:53.692Z,29.58
2023-02-11T18:27:22.076Z,29.85
2023-02-11T18:29:49.133Z,30.17
2023-02-11T18:32:16.024Z,28.88
2023-02-11T18:34:43.263Z,30.50
2023-02-11T18:37:10.390Z,30.80
2023-02-11T18:39:37.461Z,31.52
2023-02-11T18:42:04.632Z,30.38
2023-02-11T18:44:31.690Z,32.88
2023-02-11T18:46:58.717Z,33.58
2023-02-11T18:49:25.938Z,31.77
2023-02-11T18:51:53.137Z,31.58
2023-02-11T18:54:19.951Z,31.20
2023-02-11T18:56:46.991Z,31.40
2023-02-11T18:59:13.954Z,31.85
2023-02-11T19:01:43.346Z,30.90
2023-02-11T19:04:10.342Z,30.75
2023-02-11T19:06:38.612Z,31.08
2023-02-11T19:09:15.909Z,31.95
2023-02-11T19:11:53.999Z,29.83
2023-02-11T19:14:23.815Z,29.52
2023-02-11T19:16:53.207Z,30.30
2023-02-11T19:19:23.288Z,29.58
2023-02-11T19:21:50.603Z,28.63
2023-02-11T19:24:21.683Z,29.08
2023-02-11T19:26:50.124Z,28.80
2023-02-11T19:29:17.711Z,28.92
2023-02-11T19:31:45.440Z,27.40
2023-02-11T19:34:15.687Z,27.23
2023-02-11T19:36:42.942Z,26.45
2023-02-11T19:39:10.617Z,25.55
2023-02-11T19:41:37.952Z,24.30
2023-02-11T19:44:06.538Z,23.40
2023-02-11T19:46:36.097Z,21.42
2023-02-11T19:49:04.676Z,23.73
2023-02-11T19:51:33.717Z,23.30
2023-02-11T19:54:01.493Z,22.23
2023-02-11T19:56:28.739Z,23.13
2023-02-11T19:58:56.428Z,23.65
2023-02-11T20:01:24.927Z,22.58
2023-02-11T20:03:53.463Z,22.20
2023-02-11T20:06:23.945Z,22.40
2023-02-11T20:09:02.996Z,24.05
2023-02-11T20:11:31.268Z,21.10
2023-02-11T20:13:58.367Z,20.00
2023-02-11T20:16:44.584Z,18.92
2023-02-11T20:19:18.356Z,19.67
2023-02-11T20:21:47.318Z,19.10
2023-02-11T20:24:15.786Z,19.38
2023-02-11T20:26:42.775Z,17.30
2023-02-11T20:29:10.022Z,18.58
2023-02-11T20:31:37.128Z,17.13
2023-02-11T20:34:04.526Z,16.58
2023-02-11T20:36:35.623Z,16.08
2023-02-11T20:39:05.022Z,15.95
2023-02-11T20:41:34.882Z,14.88
2023-02-11T20:44:07.578Z,15.45
2023-02-11T20:46:36.759Z,15.88
2023-02-11T20:49:03.964Z,14.40
2023-02-11T20:51:34.154Z,13.82
2023-02-11T20:54:01.488Z,13.48
2023-02-11T20:56:31.545Z,13.18
2023-02-11T20:59:00.111Z,12.48
2023-02-11T21:01:35.477Z,12.65
2023-02-11T21:06:59.684Z,12.15
2023-02-11T21:13:34.673Z,11.95
2023-02-11T21:16:01.870Z,10.73
2023-02-11T21:18:29.071Z,10.45
2023-02-11T21:20:56.652Z,10.55
2023-02-11T21:23:23.908Z,10.65
2023-02-11T21:25:53.909Z,10.60
2023-02-11T21:28:26.092Z,10.50
2023-02-11T21:30:54.735Z,11.05
2023-02-11T21:33:23.088Z,10.85
2023-02-11T21:35:50.290Z,10.70
2023-02-11T21:38:17.379Z,10.10
2023-02-11T21:40:44.314Z,10.75
2023-02-11T21:43:11.215Z,10.23
2023-02-11T21:45:49.990Z,9.82
2023-02-11T21:48:18.140Z,9.68
2023-02-11T21:50:46.973Z,9.85
2023-02-11T21:53:14.320Z,9.88
2023-02-11T21:55:41.728Z,10.30
2023-02-11T21:58:09.601Z,10.25
2023-02-11T22:00:36.686Z,9.90
2023-02-11T22:03:03.959Z,9.63
2023-02-11T22:05:30.894Z,10.23
2023-02-11T22:07:57.866Z,9.40
2023-02-11T22:10:24.699Z,10.27
2023-02-11T22:12:51.544Z,9.90
2023-02-11T22:15:18.474Z,10.02
2023-02-11T22:17:55.161Z,10.40
2023-02-11T22:20:28.709Z,10.23
2023-02-11T22:23:11.701Z,10.02
2023-02-11T22:26:01.366Z,9.02
2023-02-11T22:29:05.957Z,9.80
2023-02-11T22:31:40.714Z,9.20
2023-02-11T22:34:16.561Z,10.30
2023-02-11T22:58:02.782Z,10.30
2023-02-11T23:07:36.161Z,10.95
2023-02-11T23:24:49.697Z,9.10
2023-02-11T23:27:31.435Z,9.40
2023-02-11T23:30:25.915Z,9.68
2023-02-11T23:32:55.993Z,9.85
2023-02-11T23:35:29.627Z,8.27
2023-02-11T23:38:27.853Z,8.70
2023-02-11T23:41:32.651Z,8.15
2023-02-11T23:44:36.025Z,8.60
2023-02-11T23:54:54.407Z,8.05
2023-02-11T23:57:45.618Z,7.63
